Plancius — PBQK — position and weather

sailwx.info

Track history (hours):
 
Tides and Currents Weather Stations Pressure Air Temp Water Temp Dewpoint Dewpoint Depression Visibility Wind Speed Wind Dir Waves Ship Positions

Plancius

Last reported at 2018-Dec-31 19:00 UTC. Time now 2019-Feb-16 04:35 UTC.
Position S 54°54' W 036°00'.
Warning: this ship's position is 46 days out of date.

Length 90 m; draft 5.1 m.

Type: Passenger vessel. MMSI: 246573000.

Barometer 992.5 mb

Date/timePositionNaut miles runAvg speedWind from/ knotsBaromVisibWave heightAir tempDewpointWater temp
2018-Dec-31 19:00S 54°54' W 036°00'18 1.5 992.5
2018-Dec-31 07:00S 54°36' W 035°54'7 1.4 992.9
2018-Dec-31 02:00S 54°30' W 035°48'34 6.9 997.3
2018-Dec-30 21:00S 54°06' W 036°30'7 3.5 1002.7
2018-Dec-30 19:00S 54°12' W 036°36'4 1.8 1003.0
2018-Dec-30 17:00S 54°12' W 036°42'14 7.0 1005.0
2018-Dec-30 15:00S 54°12' W 036°18'7 3.5 1005.3
2018-Dec-30 13:00S 54°18' W 036°12'0 0.0 1007.4
2018-Dec-30 12:00S 54°18' W 036°12'0 0.0 1007.2
2018-Dec-30 11:00S 54°18' W 036°12'0 0.0 1007.0
2018-Dec-30 10:00S 54°18' W 036°12'4 3.5 1006.9
2018-Dec-30 09:00S 54°18' W 036°06'0 0.0 1007.3
2018-Dec-30 07:00S 54°18' W 036°06'0 0.0 1007.0
2018-Dec-30 04:00S 54°18' W 036°06'0 0.0 1005.7
2018-Dec-30 03:00S 54°18' W 036°06'0 0.0 1005.4
2018-Dec-30 02:00S 54°18' W 036°06'12 4.0 1004.2
2018-Dec-29 23:00S 54°12' W 036°24'6 6.0 1001.4
2018-Dec-29 22:00S 54°18' W 036°24'4 1.8 1000.1
2018-Dec-29 20:00S 54°18' W 036°30'0 0.0 998.6
2018-Dec-29 19:00S 54°18' W 036°30'0 0.0 997.3
2018-Dec-29 18:00S 54°18' W 036°30'7 3.5 997.8
2018-Dec-29 16:00S 54°12' W 036°24'7 6.9 998.5
2018-Dec-29 15:00S 54°18' W 036°18'0 0.0 998.3
2018-Dec-29 13:00S 54°18' W 036°18'37 1.6 999.7
2018-Dec-28 14:00S 54°06' W 037°18'0 0.0 996.0
2018-Dec-28 11:00S 54°06' W 037°18'0 0.0 996.8
2018-Dec-28 10:00S 54°06' W 037°18'0 0.0 996.7
2018-Dec-28 09:00S 54°06' W 037°18'7 7.0 997.0
2018-Dec-28 08:00S 54°00' W 037°24'   997.8
Track history (hours):
 
Tides and Currents Weather Stations Pressure Air Temp Water Temp Dewpoint Dewpoint Depression Visibility Wind Speed Wind Dir Waves Ship Positions

Plancius

Last reported at 2018-Dec-31 19:00 UTC. Time now 2019-Feb-16 04:35 UTC.
Position S 54°54' W 036°00'.
Warning: this ship's position is 46 days out of date.

Length 90 m; draft 5.1 m.

Type: Passenger vessel. MMSI: 246573000.

Barometer 992.5 mb

Date/timePositionNaut miles runAvg speedWind from/ knotsBaromVisibWave heightAir tempDewpointWater temp
2018-Dec-31 19:00S 54°54' W 036°00'18 1.5 992.5
2018-Dec-31 07:00S 54°36' W 035°54'7 1.4 992.9
2018-Dec-31 02:00S 54°30' W 035°48'34 6.9 997.3
2018-Dec-30 21:00S 54°06' W 036°30'7 3.5 1002.7
2018-Dec-30 19:00S 54°12' W 036°36'4 1.8 1003.0
2018-Dec-30 17:00S 54°12' W 036°42'14 7.0 1005.0
2018-Dec-30 15:00S 54°12' W 036°18'7 3.5 1005.3
2018-Dec-30 13:00S 54°18' W 036°12'0 0.0 1007.4
2018-Dec-30 12:00S 54°18' W 036°12'0 0.0 1007.2
2018-Dec-30 11:00S 54°18' W 036°12'0 0.0 1007.0
2018-Dec-30 10:00S 54°18' W 036°12'4 3.5 1006.9
2018-Dec-30 09:00S 54°18' W 036°06'0 0.0 1007.3
2018-Dec-30 07:00S 54°18' W 036°06'0 0.0 1007.0
2018-Dec-30 04:00S 54°18' W 036°06'0 0.0 1005.7
2018-Dec-30 03:00S 54°18' W 036°06'0 0.0 1005.4
2018-Dec-30 02:00S 54°18' W 036°06'12 4.0 1004.2
2018-Dec-29 23:00S 54°12' W 036°24'6 6.0 1001.4
2018-Dec-29 22:00S 54°18' W 036°24'4 1.8 1000.1
2018-Dec-29 20:00S 54°18' W 036°30'0 0.0 998.6
2018-Dec-29 19:00S 54°18' W 036°30'0 0.0 997.3
2018-Dec-29 18:00S 54°18' W 036°30'7 3.5 997.8
2018-Dec-29 16:00S 54°12' W 036°24'7 6.9 998.5
2018-Dec-29 15:00S 54°18' W 036°18'0 0.0 998.3
2018-Dec-29 13:00S 54°18' W 036°18'37 1.6 999.7
2018-Dec-28 14:00S 54°06' W 037°18'0 0.0 996.0
2018-Dec-28 11:00S 54°06' W 037°18'0 0.0 996.8
2018-Dec-28 10:00S 54°06' W 037°18'0 0.0 996.7
2018-Dec-28 09:00S 54°06' W 037°18'7 7.0 997.0
2018-Dec-28 08:00S 54°00' W 037°24'   997.8

Dump ship's entire track history